Time;durP1;ratioP1;P1;durP2;ratioP2;P2;SDS_P1;SDS_P2;PMS_P1;PMS_P2;Temp;Humidity;BMP_temperature;BMP_pressure;BME280_temperature;BME280_humidity;BME280_pressure;Samples;Min_cycle;Max_cycle;Signal;HPM_P1;HPM_P2
2021/01/15 00:01:23;;;;;;;9.00;6.17;;;;;;;-5.24;85.36;98955.78;1737359;82;22249;-57
2021/01/15 00:03:50;;;;;;;9.13;6.75;;;;;;;-5.26;85.35;98966.30;1737004;82;21133;-57
2021/01/15 00:06:23;;;;;;;9.48;6.92;;;;;;;-5.24;85.35;98959.58;1729092;83;21078;-57
2021/01/15 00:08:52;;;;;;;10.80;6.28;;;;;;;-5.24;85.32;98966.77;1729496;83;21181;-57
2021/01/15 00:11:25;;;;;;;10.35;7.17;;;;;;;-5.25;85.47;98970.13;1729167;83;21077;-56
2021/01/15 00:13:53;;;;;;;9.85;7.03;;;;;;;-5.22;85.73;98967.65;1729556;83;21382;-57
2021/01/15 00:16:33;;;;;;;9.75;6.67;;;;;;;-5.18;85.85;98971.98;1729083;83;21212;-57
2021/01/15 00:19:02;;;;;;;10.75;7.05;;;;;;;-5.15;85.86;98973.72;1728661;83;21216;-56
2021/01/15 00:21:32;;;;;;;10.08;6.67;;;;;;;-5.14;85.98;98969.97;1729430;83;21193;-57
2021/01/15 00:24:04;;;;;;;9.98;6.60;;;;;;;-5.15;85.87;98976.25;1729431;83;21526;-56
2021/01/15 00:26:33;;;;;;;9.70;6.83;;;;;;;-5.19;85.68;98977.02;1729568;83;22266;-57
2021/01/15 00:29:01;;;;;;;9.35;6.70;;;;;;;-5.21;85.81;98985.01;1729353;82;21196;-57
2021/01/15 00:31:40;;;;;;;9.53;6.10;;;;;;;-5.26;85.92;99004.30;1729230;83;21161;-57
2021/01/15 00:34:10;;;;;;;10.10;6.87;;;;;;;-5.32;85.73;98994.46;1729299;83;21127;-57
2021/01/15 00:36:40;;;;;;;11.90;7.35;;;;;;;-5.40;86.17;98998.49;1729405;83;21077;-56
2021/01/15 00:39:09;;;;;;;11.18;7.50;;;;;;;-5.42;86.04;99003.95;1729377;83;21392;-57
2021/01/15 00:41:38;;;;;;;10.65;7.60;;;;;;;-5.45;85.89;99003.85;1729348;83;21098;-56
2021/01/15 00:44:06;;;;;;;11.40;7.78;;;;;;;-5.47;85.54;99011.83;1729387;83;21110;-56
2021/01/15 00:46:35;;;;;;;9.90;7.03;;;;;;;-5.50;85.11;99016.83;1729321;83;21157;-57
2021/01/15 00:49:07;;;;;;;12.25;8.50;;;;;;;-5.54;84.77;99023.89;1729481;83;21161;-57
2021/01/15 00:51:37;;;;;;;12.03;9.08;;;;;;;-5.54;84.67;99030.23;1729692;83;22251;-57
2021/01/15 00:54:05;;;;;;;18.37;10.88;;;;;;;-5.57;84.69;99031.43;1729428;83;21618;-56
2021/01/15 00:56:33;;;;;;;14.70;9.70;;;;;;;-5.58;84.25;99028.45;1729567;82;21173;-57
2021/01/15 00:59:03;;;;;;;11.30;8.33;;;;;;;-5.60;84.08;99030.06;1729490;83;21602;-57
2021/01/15 01:01:35;;;;;;;9.00;6.10;;;;;;;-5.61;83.32;99035.95;1728181;83;21184;-57
2021/01/15 01:04:05;;;;;;;9.10;6.00;;;;;;;-5.67;82.36;99040.48;1675692;83;21396;-57
2021/01/15 01:06:32;;;;;;;11.80;7.15;;;;;;;-5.74;81.19;99058.86;1729235;83;21161;-57
2021/01/15 01:09:02;;;;;;;9.55;6.83;;;;;;;-5.83;81.60;99043.81;1729444;83;21212;-56
2021/01/15 01:11:33;;;;;;;11.15;7.47;;;;;;;-5.91;81.70;99047.03;1729270;83;21212;-57
2021/01/15 01:14:03;;;;;;;10.70;7.25;;;;;;;-5.96;81.86;99040.16;1729325;83;21201;-57
2021/01/15 01:16:31;;;;;;;10.70;7.35;;;;;;;-6.02;81.88;99042.52;1729485;83;22242;-57
2021/01/15 01:19:00;;;;;;;11.97;7.85;;;;;;;-6.08;82.02;99038.14;1729370;83;21542;-57
2021/01/15 01:21:28;;;;;;;13.43;8.13;;;;;;;-6.12;82.25;99041.42;1729377;83;21090;-56
2021/01/15 01:23:55;;;;;;;13.90;9.25;;;;;;;-6.15;82.44;99040.91;1729307;81;21097;-57
2021/01/15 01:26:24;;;;;;;13.68;8.00;;;;;;;-6.17;82.64;99039.16;1729162;83;21156;-57
2021/01/15 01:28:52;;;;;;;11.70;7.97;;;;;;;-6.18;82.71;99050.10;1729375;83;21201;-57
2021/01/15 01:31:19;;;;;;;9.75;7.28;;;;;;;-6.19;82.91;99054.72;1729048;81;21176;-57
2021/01/15 01:33:47;;;;;;;10.80;6.97;;;;;;;-6.17;82.88;99060.67;1729513;83;21082;-57
2021/01/15 01:36:15;;;;;;;9.15;6.12;;;;;;;-6.20;82.71;99064.36;1729269;83;21173;-57
2021/01/15 01:38:43;;;;;;;14.68;7.60;;;;;;;-6.19;82.56;99061.05;1729372;83;21169;-57
2021/01/15 01:41:11;;;;;;;11.60;7.65;;;;;;;-6.21;82.46;99058.86;1729515;83;21378;-56
2021/01/15 01:43:39;;;;;;;11.75;7.35;;;;;;;-6.21;82.68;99063.50;1729311;83;21113;-57
2021/01/15 01:46:07;;;;;;;13.98;7.47;;;;;;;-6.20;82.67;99060.56;1729419;83;21082;-57
2021/01/15 01:48:36;;;;;;;8.65;5.70;;;;;;;-6.20;82.12;99061.83;1729246;83;21184;-57
2021/01/15 01:51:05;;;;;;;7.60;5.42;;;;;;;-6.21;81.10;99068.56;1729408;83;21579;-57
2021/01/15 01:53:37;;;;;;;11.65;6.70;;;;;;;-6.28;80.20;99072.14;1729251;83;21384;-57
2021/01/15 01:56:06;;;;;;;9.63;5.47;;;;;;;-6.41;80.55;99068.42;1722749;83;21184;-57
2021/01/15 01:58:35;;;;;;;10.05;5.40;;;;;;;-6.51;79.91;99083.72;1729206;83;21197;-57
2021/01/15 02:01:04;;;;;;;8.15;5.80;;;;;;;-6.56;79.63;99091.59;1729546;81;21157;-57
2021/01/15 02:03:33;;;;;;;10.23;5.50;;;;;;;-6.61;79.45;99084.27;1729296;83;21200;-57
2021/01/15 02:06:01;;;;;;;12.33;6.78;;;;;;;-6.66;79.66;99083.27;1717306;83;21209;-57
2021/01/15 02:08:30;;;;;;;9.63;6.42;;;;;;;-6.68;79.81;99087.42;1709111;84;21106;-57
2021/01/15 02:11:22;;;;;;;10.45;6.60;;;;;;;-6.67;79.98;99089.13;1709257;84;21202;-57
2021/01/15 02:14:18;;;;;;;10.48;6.85;;;;;;;-6.65;79.96;99096.34;1708874;84;21551;-57
2021/01/15 02:16:44;;;;;;;11.70;7.10;;;;;;;-6.64;80.10;99103.15;1709434;84;21147;-57
2021/01/15 02:19:41;;;;;;;14.78;7.17;;;;;;;-6.63;80.16;99099.80;1709380;83;21284;-57
2021/01/15 02:22:37;;;;;;;11.43;7.67;;;;;;;-6.60;80.23;99102.41;1717404;80;21199;-57
2021/01/15 02:25:55;;;;;;;9.98;6.40;;;;;;;-6.57;80.13;99102.52;1694778;84;21136;-57
2021/01/15 02:29:14;;;;;;;12.30;7.80;;;;;;;-6.53;80.04;99105.58;1690094;85;21129;-58
2021/01/15 02:32:07;;;;;;;13.75;8.25;;;;;;;-6.55;80.10;99097.50;1689134;85;21188;-57
2021/01/15 02:35:00;;;;;;;8.15;4.95;;;;;;;-6.56;79.82;99108.03;1689833;85;21278;-57
2021/01/15 02:37:57;;;;;;;6.78;4.75;;;;;;;-6.64;79.38;99104.41;1689794;85;21442;-57
2021/01/15 02:41:02;;;;;;;5.70;4.03;;;;;;;-6.73;79.15;99109.16;1689244;85;21701;-58
2021/01/15 02:43:31;;;;;;;5.87;4.12;;;;;;;-6.82;78.38;99113.53;1689698;85;21121;-57
2021/01/15 02:45:59;;;;;;;10.03;5.20;;;;;;;-6.91;78.65;99114.92;1690110;85;21093;-57
2021/01/15 02:48:31;;;;;;;6.03;3.70;;;;;;;-6.95;78.35;99116.88;1661369;85;22274;-57
2021/01/15 02:50:59;;;;;;;4.75;3.62;;;;;;;-7.02;78.10;99112.07;1690208;85;21092;-57
2021/01/15 02:53:27;;;;;;;5.35;3.60;;;;;;;-7.10;77.89;99119.41;1690219;85;21514;-57
2021/01/15 02:55:55;;;;;;;4.47;3.62;;;;;;;-7.16;77.43;99122.98;1690263;85;21148;-57
2021/01/15 02:58:22;;;;;;;5.65;3.90;;;;;;;-7.23;77.01;99127.38;1690014;85;21173;-57
2021/01/15 03:00:50;;;;;;;6.17;3.60;;;;;;;-7.32;76.92;99125.83;1690195;83;21280;-57
2021/01/15 03:03:32;;;;;;;5.83;3.52;;;;;;;-7.40;77.09;99128.50;1690210;83;21533;-57
2021/01/15 03:06:11;;;;;;;4.60;3.20;;;;;;;-7.47;76.93;99136.27;1670573;82;21098;-56
2021/01/15 03:08:39;;;;;;;5.08;3.35;;;;;;;-7.53;76.95;99146.56;1689923;85;21190;-56
2021/01/15 03:11:07;;;;;;;14.30;9.30;;;;;;;-7.64;77.00;99139.45;1690482;85;21078;-56
2021/01/15 03:13:35;;;;;;;6.62;4.53;;;;;;;-7.71;77.22;99140.05;1690127;83;21392;-56
2021/01/15 03:16:04;;;;;;;4.95;3.80;;;;;;;-7.76;77.48;99140.30;1690427;84;21150;-56
2021/01/15 03:18:32;;;;;;;5.10;3.50;;;;;;;-7.79;77.72;99142.70;1690093;85;21206;-56
2021/01/15 03:21:01;;;;;;;7.10;4.40;;;;;;;-7.78;77.86;99143.19;1689654;85;21095;-58
2021/01/15 03:23:29;;;;;;;18.07;10.75;;;;;;;-7.79;77.94;99150.27;1690301;84;21098;-56
2021/01/15 03:25:57;;;;;;;20.35;10.98;;;;;;;-7.82;78.04;99154.81;1666847;83;21388;-55
2021/01/15 03:28:25;;;;;;;18.65;10.53;;;;;;;-7.86;78.16;99160.95;1690244;85;21146;-55
2021/01/15 03:30:53;;;;;;;19.10;10.25;;;;;;;-7.95;78.35;99158.10;1690314;83;21138;-56
2021/01/15 03:33:21;;;;;;;22.05;11.68;;;;;;;-8.03;78.80;99162.02;1690257;85;21193;-56
2021/01/15 03:35:48;;;;;;;10.82;7.47;;;;;;;-8.11;79.22;99165.11;1690438;85;21089;-55
2021/01/15 03:38:16;;;;;;;10.23;5.95;;;;;;;-8.17;79.86;99167.40;1690359;83;21228;-56
2021/01/15 03:40:46;;;;;;;8.05;4.87;;;;;;;-8.23;80.54;99177.28;1690321;85;21197;-56
2021/01/15 03:43:21;;;;;;;5.95;4.22;;;;;;;-8.29;81.03;99168.22;1690257;83;21142;-56
2021/01/15 03:45:50;;;;;;;8.00;4.40;;;;;;;-8.38;81.89;99174.22;1690527;85;21079;-56
2021/01/15 03:48:18;;;;;;;5.92;4.28;;;;;;;-8.43;82.17;99175.69;1690332;85;21082;-56
2021/01/15 03:50:46;;;;;;;7.08;4.87;;;;;;;-8.47;82.76;99183.52;1690288;85;21203;-56
2021/01/15 03:53:17;;;;;;;6.60;4.25;;;;;;;-8.46;82.94;99188.19;1690346;85;21590;-56
2021/01/15 03:55:45;;;;;;;6.28;4.35;;;;;;;-8.46;83.08;99192.83;1690255;85;21134;-56
2021/01/15 03:58:13;;;;;;;7.12;4.75;;;;;;;-8.47;83.32;99187.30;1690483;85;21149;-56
2021/01/15 04:00:40;;;;;;;6.97;5.05;;;;;;;-8.45;83.35;99186.13;1690101;85;21162;-56
2021/01/15 04:03:08;;;;;;;7.05;5.25;;;;;;;-8.43;83.33;99194.59;1690380;83;21213;-56
2021/01/15 04:05:37;;;;;;;5.70;4.30;;;;;;;-8.41;83.29;99189.20;1690019;83;21307;-56
2021/01/15 04:08:05;;;;;;;6.97;4.80;;;;;;;-8.43;83.30;99182.00;1690266;83;21142;-56
2021/01/15 04:10:35;;;;;;;7.03;4.92;;;;;;;-8.44;83.32;99181.54;1690192;85;21153;-56
2021/01/15 04:13:02;;;;;;;10.55;5.60;;;;;;;-8.41;83.25;99171.56;1690375;85;21138;-56
2021/01/15 04:15:31;;;;;;;6.72;4.87;;;;;;;-8.38;83.25;99179.66;1690251;84;21353;-57
2021/01/15 04:18:01;;;;;;;11.00;8.28;;;;;;;-8.35;83.19;99175.98;1690160;85;21090;-56
2021/01/15 04:20:29;;;;;;;8.95;6.80;;;;;;;-8.35;83.12;99181.03;1690217;84;21078;-56
2021/01/15 04:22:57;;;;;;;7.60;5.35;;;;;;;-8.40;82.97;99177.05;1690233;85;21074;-56
2021/01/15 04:25:25;;;;;;;7.72;5.40;;;;;;;-8.42;82.99;99173.22;1690254;85;21189;-57
2021/01/15 04:27:53;;;;;;;13.83;6.95;;;;;;;-8.45;82.94;99178.56;1690294;85;21524;-56
2021/01/15 04:30:22;;;;;;;8.58;5.22;;;;;;;-8.48;82.85;99177.16;1690251;85;21113;-56
2021/01/15 04:32:50;;;;;;;9.48;6.37;;;;;;;-8.53;82.97;99176.15;1690498;85;21602;-55
2021/01/15 04:35:19;;;;;;;12.33;7.55;;;;;;;-8.57;83.03;99170.52;1690260;83;21095;-56
2021/01/15 04:37:47;;;;;;;9.80;6.80;;;;;;;-8.58;83.10;99173.84;1690353;85;21154;-55
2021/01/15 04:40:16;;;;;;;7.72;5.35;;;;;;;-8.59;83.12;99185.98;1690347;83;21385;-56
2021/01/15 04:42:45;;;;;;;9.75;6.78;;;;;;;-8.62;83.15;99170.73;1690100;85;21149;-55
2021/01/15 04:45:15;;;;;;;560.52;250.45;;;;;;;-8.63;83.17;99179.09;1690152;85;21592;-56
2021/01/15 04:47:47;;;;;;;40.73;18.48;;;;;;;-8.64;83.21;99188.31;1690104;85;21209;-56
2021/01/15 04:50:17;;;;;;;13.13;9.30;;;;;;;-8.64;83.23;99185.80;1690358;85;21173;-55
2021/01/15 04:52:49;;;;;;;10.78;6.00;;;;;;;-8.63;83.31;99190.44;1690144;85;21410;-55
2021/01/15 04:55:22;;;;;;;9.23;6.40;;;;;;;-8.57;83.33;99193.20;1690239;85;21102;-55
2021/01/15 04:57:55;;;;;;;8.80;5.85;;;;;;;-8.57;83.18;99192.80;1690260;85;21138;-56
2021/01/15 05:00:25;;;;;;;8.58;5.97;;;;;;;-8.55;83.27;99195.38;1690209;84;21650;-55
2021/01/15 05:02:53;;;;;;;11.57;6.25;;;;;;;-8.56;83.07;99199.95;1690129;85;21154;-55
2021/01/15 05:05:27;;;;;;;9.63;6.37;;;;;;;-8.56;83.12;99193.66;1690322;84;21382;-56
2021/01/15 05:08:15;;;;;;;10.45;7.40;;;;;;;-8.56;83.00;99196.17;1699533;84;21157;-56
2021/01/15 05:10:45;;;;;;;9.40;6.53;;;;;;;-8.55;82.98;99211.35;1700272;84;21121;-56
2021/01/15 05:13:15;;;;;;;8.20;5.95;;;;;;;-8.56;82.96;99210.89;1700235;84;21161;-55
2021/01/15 05:15:46;;;;;;;9.65;6.42;;;;;;;-8.53;82.91;99207.66;1700026;84;21153;-55
2021/01/15 05:18:19;;;;;;;8.90;5.87;;;;;;;-8.53;82.92;99216.48;1700318;84;21397;-55
2021/01/15 05:20:47;;;;;;;12.15;7.22;;;;;;;-8.52;82.95;99212.75;1700018;84;21572;-55
2021/01/15 05:23:16;;;;;;;9.83;7.08;;;;;;;-8.50;82.95;99215.33;1700342;84;21156;-55
2021/01/15 05:25:46;;;;;;;10.90;6.87;;;;;;;-8.52;82.81;99207.71;1699914;84;21622;-55
2021/01/15 05:28:17;;;;;;;10.25;5.92;;;;;;;-8.57;82.88;99212.10;1699845;84;21145;-55
2021/01/15 05:30:47;;;;;;;97.53;28.35;;;;;;;-8.60;82.99;99214.11;1700193;84;22245;-55
2021/01/15 05:33:16;;;;;;;36.17;17.67;;;;;;;-8.60;83.06;99213.25;1700047;84;21196;-55
2021/01/15 05:35:51;;;;;;;9.30;5.97;;;;;;;-8.59;83.13;99225.05;1700113;82;21109;-56
2021/01/15 05:38:20;;;;;;;9.90;6.60;;;;;;;-8.61;83.11;99230.04;1700445;84;21098;-55
2021/01/15 05:40:55;;;;;;;8.20;5.90;;;;;;;-8.59;83.29;99232.61;1700297;84;21934;-55
2021/01/15 05:43:26;;;;;;;8.88;5.70;;;;;;;-8.54;83.28;99231.97;1700452;84;21401;-55
2021/01/15 05:46:18;;;;;;;1120.73;313.25;;;;;;;-8.54;83.18;99231.97;1700189;84;21654;-55
2021/01/15 05:48:49;;;;;;;131.50;47.55;;;;;;;-8.53;83.17;99237.50;1699971;84;21094;-55
2021/01/15 05:51:31;;;;;;;12.53;8.25;;;;;;;-8.51;83.26;99241.34;1700318;84;21499;-55
2021/01/15 05:54:00;;;;;;;14.03;9.03;;;;;;;-8.49;83.25;99239.73;1700320;84;21082;-56
2021/01/15 05:56:43;;;;;;;10.98;7.37;;;;;;;-8.47;83.12;99243.16;1700052;82;21225;-56
2021/01/15 05:59:17;;;;;;;12.18;6.92;;;;;;;-8.50;83.16;99235.48;1698908;83;21138;-55
2021/01/15 06:01:54;;;;;;;10.88;6.53;;;;;;;-8.51;83.20;99252.28;1713848;81;21159;-55
2021/01/15 06:04:36;;;;;;;9.98;6.78;;;;;;;-8.48;83.35;99259.95;1756783;81;21172;-56
2021/01/15 06:07:15;;;;;;;9.23;6.20;;;;;;;-8.40;83.41;99261.52;1731873;81;21193;-56
2021/01/15 06:09:45;;;;;;;11.93;6.65;;;;;;;-8.36;83.30;99262.52;1751413;81;21197;-56
2021/01/15 06:12:18;;;;;;;9.58;6.00;;;;;;;-8.36;83.15;99265.03;1751076;80;21196;-56
2021/01/15 06:14:49;;;;;;;10.10;6.72;;;;;;;-8.35;83.21;99281.88;1749320;81;21128;-57
2021/01/15 06:17:21;;;;;;;13.48;7.65;;;;;;;-8.30;83.35;99282.90;1687720;84;21231;-56
2021/01/15 06:19:54;;;;;;;10.90;6.45;;;;;;;-8.24;83.37;99280.19;1737587;80;21402;-56
2021/01/15 06:22:49;;;;;;;9.50;6.05;;;;;;;-8.18;83.14;99275.39;1738102;81;21394;-58
2021/01/15 06:25:34;;;;;;;9.60;6.22;;;;;;;-8.17;82.98;99283.81;1746499;81;21085;-57
2021/01/15 06:28:04;;;;;;;14.53;7.50;;;;;;;-8.17;83.03;99284.67;1747626;80;21124;-57
2021/01/15 06:30:35;;;;;;;12.80;7.97;;;;;;;-8.14;82.94;99297.83;1758206;80;21205;-59
2021/01/15 06:33:13;;;;;;;9.05;6.10;;;;;;;-8.12;82.94;99279.42;1761490;80;21565;-58
2021/01/15 06:35:44;;;;;;;8.20;6.28;;;;;;;-8.08;82.92;99298.07;1758633;80;21368;-58
2021/01/15 06:38:17;;;;;;;11.10;7.58;;;;;;;-8.05;82.84;99303.62;1745022;81;21148;-58
2021/01/15 06:40:47;;;;;;;9.78;6.20;;;;;;;-8.02;82.73;99310.89;1721002;83;21151;-57
2021/01/15 06:43:24;;;;;;;19.50;10.32;;;;;;;-7.99;82.66;99314.82;1721345;83;21576;-57
2021/01/15 06:46:03;;;;;;;10.20;6.42;;;;;;;-7.95;82.73;99309.48;1721255;83;21693;-55
2021/01/15 06:48:39;;;;;;;9.05;6.22;;;;;;;-7.88;82.58;99313.55;1708362;83;21838;-57
2021/01/15 06:51:08;;;;;;;11.38;6.65;;;;;;;-7.83;82.43;99317.53;1722662;83;21092;-58
2021/01/15 06:53:41;;;;;;;10.03;6.67;;;;;;;-7.78;82.18;99314.79;1752400;81;21163;-57
2021/01/15 06:56:18;;;;;;;10.58;6.83;;;;;;;-7.74;82.21;99315.75;1751803;81;21187;-57
2021/01/15 06:58:46;;;;;;;;;;;;;;;-7.68;82.03;99318.52;1755176;81;21137;-56
2021/01/15 07:01:40;;;;;;;10.82;7.42;;;;;;;-7.62;81.77;99323.40;1751420;81;21203;-57
2021/01/15 07:04:27;;;;;;;9.93;6.10;;;;;;;-7.58;81.55;99328.14;1750751;82;21170;-56
2021/01/15 07:07:15;;;;;;;11.68;6.55;;;;;;;-7.57;81.24;99327.34;1751159;81;21175;-57
2021/01/15 07:09:48;;;;;;;10.58;7.03;;;;;;;-7.60;80.85;99322.19;1761094;80;21087;-57
2021/01/15 07:12:19;;;;;;;10.15;6.90;;;;;;;-7.63;81.09;99330.52;1791305;80;21124;-57
2021/01/15 07:14:58;;;;;;;10.18;6.40;;;;;;;-7.59;81.04;99320.12;1747913;81;21390;-57
2021/01/15 07:17:35;;;;;;;10.38;6.55;;;;;;;-7.57;80.64;99313.05;1751993;81;21575;-58
2021/01/15 07:20:12;;;;;;;;;;;;;;;-7.61;80.31;99323.85;1754803;81;21120;-56
2021/01/15 07:22:52;;;;;;;8.55;5.70;;;;;;;-7.64;80.37;99323.72;1751783;81;20540;-57
2021/01/15 07:25:21;;;;;;;16.52;8.18;;;;;;;-7.66;80.40;99330.37;1751842;81;22052;-56
2021/01/15 07:27:49;;;;;;;299.58;143.93;;;;;;;-7.69;80.32;99327.75;1752489;81;21206;-56
2021/01/15 07:30:29;;;;;;;14.78;9.43;;;;;;;-7.72;80.31;99327.61;1752887;81;21080;-56
2021/01/15 07:32:58;;;;;;;12.25;7.45;;;;;;;-7.70;80.40;99328.56;1751462;81;21554;-56
2021/01/15 07:35:29;;;;;;;10.15;7.03;;;;;;;-7.70;80.36;99335.27;1745569;81;21068;-56
2021/01/15 07:38:13;;;;;;;10.20;6.35;;;;;;;-7.70;80.43;99336.53;1727923;81;21139;-58
2021/01/15 07:40:43;;;;;;;10.25;6.35;;;;;;;-7.68;80.29;99337.04;1747734;81;21213;-56
2021/01/15 07:43:31;;;;;;;14.78;8.00;;;;;;;-7.68;80.44;99339.56;1744123;81;21533;-56
2021/01/15 07:46:02;;;;;;;13.93;7.65;;;;;;;-7.66;80.42;99353.09;1750255;81;21530;-57
2021/01/15 07:48:30;;;;;;;12.82;9.43;;;;;;;-7.66;80.40;99349.31;1747423;81;21508;-56
2021/01/15 07:50:58;;;;;;;10.90;7.28;;;;;;;-7.66;80.46;99355.63;1751387;81;21145;-56
2021/01/15 07:53:40;;;;;;;10.38;7.37;;;;;;;-7.66;80.41;99366.98;1751050;81;21215;-56
2021/01/15 07:56:09;;;;;;;11.85;7.40;;;;;;;-7.64;80.52;99366.63;1750907;81;21094;-57
2021/01/15 07:58:47;;;;;;;11.95;7.70;;;;;;;-7.56;80.39;99368.19;1747895;80;21138;-58
2021/01/15 08:01:17;;;;;;;17.90;9.98;;;;;;;-7.53;80.36;99374.63;1732184;81;21141;-56
2021/01/15 08:03:58;;;;;;;16.30;7.90;;;;;;;-7.48;80.47;99369.73;1742836;80;21052;-57
2021/01/15 08:06:32;;;;;;;11.97;7.10;;;;;;;-7.41;80.08;99366.23;1725165;81;21387;-58
2021/01/15 08:09:07;;;;;;;11.90;7.65;;;;;;;-7.38;80.11;99366.77;1745368;80;21226;-58
2021/01/15 08:11:37;;;;;;;11.22;6.65;;;;;;;-7.31;79.81;99369.59;1749612;81;21218;-58
2021/01/15 08:14:23;;;;;;;13.03;7.85;;;;;;;-7.25;79.61;99372.75;1738964;80;21281;-57
2021/01/15 08:16:50;;;;;;;15.25;8.03;;;;;;;-7.22;79.53;99368.20;1745142;80;21199;-59
2021/01/15 08:19:22;;;;;;;11.68;7.42;;;;;;;-7.17;79.60;99367.58;1745775;80;21253;-58
2021/01/15 08:21:51;;;;;;;10.18;6.80;;;;;;;-7.11;79.25;99364.39;1750025;81;21824;-58
2021/01/15 08:24:22;;;;;;;14.90;9.03;;;;;;;-7.08;79.30;99357.80;1745501;80;21100;-57
2021/01/15 08:26:55;;;;;;;15.38;9.00;;;;;;;-6.99;78.95;99356.00;1734982;81;21648;-57
2021/01/15 08:29:26;;;;;;;10.60;7.15;;;;;;;-6.95;78.74;99373.38;1743278;81;21210;-56
2021/01/15 08:31:56;;;;;;;12.28;7.50;;;;;;;-6.99;78.48;99370.75;1740188;82;22685;-59
2021/01/15 08:34:33;;;;;;;16.27;9.65;;;;;;;-7.00;78.47;99376.62;1747466;81;21215;-58
2021/01/15 08:37:01;;;;;;;;;;;;;;;-7.01;78.33;99377.83;1752464;80;21123;-56
2021/01/15 08:39:46;;;;;;;15.48;8.23;;;;;;;-7.05;78.53;99378.51;1735246;80;20248;-56
2021/01/15 08:42:15;;;;;;;14.10;8.93;;;;;;;-7.07;78.40;99382.66;1741055;81;21218;-57
2021/01/15 08:44:51;;;;;;;15.63;10.03;;;;;;;-7.10;78.58;99383.82;1748736;80;22325;-57
2021/01/15 08:47:27;;;;;;;18.25;9.85;;;;;;;-7.10;78.63;99386.34;1745255;80;21189;-57
2021/01/15 08:50:00;;;;;;;18.17;9.48;;;;;;;-7.11;78.50;99393.03;1753931;80;21197;-58
2021/01/15 08:52:32;;;;;;;11.95;7.58;;;;;;;-7.06;78.71;99391.55;1740608;80;21150;-58
2021/01/15 08:55:01;;;;;;;12.55;8.13;;;;;;;-7.01;78.47;99395.12;1709758;83;21668;-60
2021/01/15 08:57:30;;;;;;;11.75;7.95;;;;;;;-6.95;78.28;99393.22;1748340;81;21721;-60
2021/01/15 09:00:19;;;;;;;14.03;8.88;;;;;;;-6.89;78.16;99395.08;1733721;80;21727;-58
2021/01/15 09:02:49;;;;;;;15.98;10.10;;;;;;;-6.81;78.20;99397.08;1738477;81;21164;-58
2021/01/15 09:05:20;;;;;;;53.45;27.07;;;;;;;-6.69;78.28;99396.66;1688309;83;21211;-58
2021/01/15 09:07:51;;;;;;;14.87;9.88;;;;;;;-6.54;78.12;99390.02;1680493;83;21202;-60
2021/01/15 09:10:21;;;;;;;14.73;9.35;;;;;;;-6.39;77.55;99390.54;1759577;81;21369;-60
2021/01/15 09:12:49;;;;;;;12.50;8.00;;;;;;;-6.28;77.36;99392.16;1762709;81;21068;-59
2021/01/15 09:15:30;;;;;;;14.78;9.55;;;;;;;-6.21;77.00;99390.28;1761738;81;21052;-58
2021/01/15 09:18:07;;;;;;;11.83;7.80;;;;;;;-6.13;76.88;99389.27;1755395;80;21151;-58
2021/01/15 09:20:39;;;;;;;12.05;7.55;;;;;;;-6.05;76.63;99378.99;1742321;81;21647;-59
2021/01/15 09:23:07;;;;;;;11.95;6.97;;;;;;;-5.96;76.47;99378.91;1761814;81;21436;-60
2021/01/15 09:25:38;;;;;;;12.95;7.90;;;;;;;-5.87;75.80;99382.96;1761105;81;21160;-57
2021/01/15 09:28:07;;;;;;;12.28;8.08;;;;;;;-5.89;75.82;99378.27;1761741;81;21175;-57
2021/01/15 09:30:35;;;;;;;14.15;10.35;;;;;;;-5.86;75.63;99374.95;1762371;81;21127;-58
2021/01/15 09:33:04;;;;;;;18.82;11.08;;;;;;;-5.86;75.40;99368.22;1752619;81;21211;-58
2021/01/15 09:35:32;;;;;;;13.78;8.78;;;;;;;-5.92;75.27;99370.59;1700167;84;21386;-59
2021/01/15 09:38:01;;;;;;;14.47;8.98;;;;;;;-6.01;75.27;99372.83;1700006;83;21118;-59
2021/01/15 09:40:30;;;;;;;13.70;8.38;;;;;;;-6.05;75.37;99376.06;1742112;81;21093;-57
2021/01/15 09:42:58;;;;;;;10.72;7.65;;;;;;;-5.97;75.54;99385.16;1761633;81;21246;-58
2021/01/15 09:45:26;;;;;;;11.10;7.40;;;;;;;-5.91;75.45;99387.89;1761681;81;21197;-58
2021/01/15 09:47:54;;;;;;;13.22;8.45;;;;;;;-5.90;75.20;99387.05;1760670;81;21433;-59
2021/01/15 09:50:22;;;;;;;14.33;10.53;;;;;;;-5.92;75.52;99389.57;1760129;81;21205;-59
2021/01/15 09:52:50;;;;;;;13.68;9.25;;;;;;;-5.86;75.55;99385.94;1761203;81;21133;-59
2021/01/15 09:55:18;;;;;;;15.50;9.20;;;;;;;-5.82;75.71;99393.63;1758325;81;21478;-58
2021/01/15 09:57:49;;;;;;;14.53;8.38;;;;;;;-5.76;75.59;99384.55;1738893;81;21766;-58
2021/01/15 10:00:18;;;;;;;16.97;11.30;;;;;;;-5.73;75.49;99383.81;1730504;82;21208;-59
2021/01/15 10:02:46;;;;;;;21.60;13.38;;;;;;;-5.73;75.65;99383.81;1757171;81;21212;-60
2021/01/15 10:05:15;;;;;;;27.82;15.80;;;;;;;-5.68;75.82;99386.05;1750714;79;21131;-58
2021/01/15 10:07:44;;;;;;;25.80;14.58;;;;;;;-5.66;75.69;99379.39;1745543;81;21136;-58
2021/01/15 10:10:14;;;;;;;14.98;10.30;;;;;;;-5.68;75.83;99378.05;1731233;82;21235;-57
2021/01/15 10:12:45;;;;;;;14.43;9.78;;;;;;;-5.66;75.80;99369.27;1730998;82;21467;-57
2021/01/15 10:15:14;;;;;;;15.13;10.00;;;;;;;-5.67;75.89;99367.52;1730960;82;21151;-57
2021/01/15 10:17:45;;;;;;;21.87;12.37;;;;;;;-5.69;76.04;99372.95;1753471;81;21665;-58
2021/01/15 10:20:15;;;;;;;15.60;8.85;;;;;;;-5.67;76.31;99371.31;1761514;81;21151;-57
2021/01/15 10:22:52;;;;;;;15.75;9.70;;;;;;;-5.62;76.14;99365.99;1756918;81;21179;-58
2021/01/15 10:25:22;;;;;;;18.40;10.03;;;;;;;-5.66;76.22;99367.59;1757246;81;22563;-57
2021/01/15 10:27:50;;;;;;;20.77;11.83;;;;;;;-5.57;76.18;99373.34;1755378;81;21143;-57
2021/01/15 10:30:22;;;;;;;13.65;8.48;;;;;;;-5.38;76.12;99375.59;1759186;81;21167;-58
2021/01/15 10:32:49;;;;;;;16.30;10.70;;;;;;;-5.16;75.80;99371.16;1735717;81;21190;-59
2021/01/15 10:35:19;;;;;;;13.18;9.00;;;;;;;-5.00;75.65;99372.45;1758540;81;21156;-57
2021/01/15 10:37:47;;;;;;;9.80;7.20;;;;;;;-4.83;75.44;99363.66;1759953;81;21727;-58
2021/01/15 10:40:17;;;;;;;12.63;8.33;;;;;;;-4.69;74.75;99368.67;1761462;81;45430;-58
2021/01/15 10:42:46;;;;;;;9.53;6.62;;;;;;;-4.66;74.31;99359.90;1752935;81;21176;-57
2021/01/15 10:45:14;;;;;;;11.22;7.50;;;;;;;-4.70;74.15;99364.84;1746615;79;21191;-58
2021/01/15 10:47:43;;;;;;;10.40;7.17;;;;;;;-4.71;74.25;99358.91;1740500;79;21557;-58
2021/01/15 10:50:15;;;;;;;10.30;7.17;;;;;;;-4.67;74.08;99368.74;1746402;81;22364;-57
2021/01/15 10:52:52;;;;;;;11.28;7.67;;;;;;;-4.70;74.15;99359.35;1762224;81;21420;-58
2021/01/15 10:55:21;;;;;;;;;;;;;;;-4.68;74.40;99354.34;1764267;81;21179;-57
2021/01/15 10:57:49;;;;;;;13.50;8.78;;;;;;;-4.55;74.74;99361.44;1762573;80;20220;-57
2021/01/15 11:00:19;;;;;;;12.78;7.90;;;;;;;-4.47;74.27;99355.74;1758640;81;21156;-57
2021/01/15 11:02:49;;;;;;;13.30;8.15;;;;;;;-4.47;74.15;99351.94;1760150;81;21379;-57
2021/01/15 11:05:17;;;;;;;11.22;7.50;;;;;;;-4.47;74.36;99346.86;1761755;81;21217;-58
2021/01/15 11:07:46;;;;;;;11.63;7.10;;;;;;;-4.47;74.27;99347.27;1760907;81;21175;-58
2021/01/15 11:10:14;;;;;;;10.30;7.10;;;;;;;-4.44;74.36;99346.11;1754944;81;21130;-57
2021/01/15 11:12:41;;;;;;;9.58;6.87;;;;;;;-4.44;75.54;99342.30;1749990;81;21661;-57
2021/01/15 11:15:11;;;;;;;10.53;6.47;;;;;;;-4.43;76.10;99346.55;1750338;82;21199;-58
2021/01/15 11:17:40;;;;;;;10.50;6.92;;;;;;;-4.36;75.85;99348.84;1750607;82;21092;-58
2021/01/15 11:20:09;;;;;;;9.03;5.80;;;;;;;-4.28;75.94;99349.89;1750502;82;21081;-55
2021/01/15 11:22:39;;;;;;;10.55;7.92;;;;;;;-4.22;74.97;99340.75;1750467;81;21164;-55
2021/01/15 11:25:08;;;;;;;15.00;9.63;;;;;;;-4.29;75.21;99331.67;1750189;82;21108;-56
2021/01/15 11:27:36;;;;;;;11.22;7.20;;;;;;;-4.28;75.43;99335.52;1747464;80;21366;-57
2021/01/15 11:30:06;;;;;;;12.45;8.38;;;;;;;-4.25;74.89;99333.04;1719094;83;21159;-56
2021/01/15 11:32:33;;;;;;;16.42;10.28;;;;;;;-4.27;74.56;99322.00;1697188;84;21154;-55
2021/01/15 11:35:02;;;;;;;15.58;10.20;;;;;;;-4.32;74.38;99324.83;1640068;85;21108;-55
2021/01/15 11:37:33;;;;;;;10.40;7.80;;;;;;;-4.32;74.35;99318.48;1697404;84;21640;-57
2021/01/15 11:40:02;;;;;;;14.47;8.80;;;;;;;-4.32;74.37;99319.75;1697963;84;21763;-56
2021/01/15 11:42:30;;;;;;;12.88;7.60;;;;;;;-4.30;74.37;99323.63;1698078;84;21159;-57
2021/01/15 11:44:58;;;;;;;12.90;9.03;;;;;;;-4.28;73.85;99316.89;1668453;86;21563;-57
2021/01/15 11:47:26;;;;;;;11.85;8.35;;;;;;;-4.31;73.79;99311.31;1698041;84;21180;-57
2021/01/15 11:49:54;;;;;;;10.98;7.47;;;;;;;-4.36;73.89;99312.89;1668357;86;21149;-57